Time;durP1;ratioP1;P1;durP2;ratioP2;P2;SDS_P1;SDS_P2;PMS_P1;PMS_P2;Temp;Humidity;BMP_temperature;BMP_pressure;BME280_temperature;BME280_humidity;BME280_pressure;Samples;Min_cycle;Max_cycle;Signal;HPM_P1;HPM_P2
2022/03/05 00:01:24;;;;;;;18.17;5.15;;;6.70;99.90;;;;;;5078964;28;20048;-78
2022/03/05 00:03:49;;;;;;;24.92;7.40;;;6.70;99.90;;;;;;5062073;28;20032;-78
2022/03/05 00:06:15;;;;;;;24.35;7.65;;;6.70;99.90;;;;;;5079913;28;20021;-77
2022/03/05 00:08:41;;;;;;;21.92;6.10;;;6.60;99.90;;;;;;5062240;28;20455;-79
2022/03/05 00:11:07;;;;;;;21.08;8.02;;;6.70;99.90;;;;;;5080235;28;20016;-79
2022/03/05 00:13:36;;;;;;;18.63;7.88;;;6.70;99.90;;;;;;5062063;28;20041;-77
2022/03/05 00:16:02;;;;;;;20.75;5.50;;;6.70;99.90;;;;;;5080246;28;20151;-78
2022/03/05 00:18:28;;;;;;;15.80;5.78;;;6.70;99.90;;;;;;5079746;28;20507;-79
2022/03/05 00:20:54;;;;;;;26.13;6.60;;;6.70;99.90;;;;;;5079848;28;20017;-78
2022/03/05 00:23:21;;;;;;;28.52;6.70;;;6.70;99.90;;;;;;5078962;28;20028;-78
2022/03/05 00:25:47;;;;;;;13.73;6.28;;;6.70;99.90;;;;;;5061835;28;20393;-78
2022/03/05 00:28:13;;;;;;;24.25;8.25;;;6.70;99.90;;;;;;5061615;28;20073;-78
2022/03/05 00:30:39;;;;;;;18.90;6.18;;;6.70;99.90;;;;;;5079605;28;20024;-78
2022/03/05 00:33:05;;;;;;;20.55;7.35;;;6.70;99.90;;;;;;5079479;28;20031;-78
2022/03/05 00:35:32;;;;;;;19.77;5.90;;;6.60;99.90;;;;;;5061543;28;20020;-79
2022/03/05 00:37:59;;;;;;;11.38;5.32;;;6.70;99.90;;;;;;5079635;28;20091;-79
2022/03/05 00:40:25;;;;;;;13.25;5.85;;;6.70;99.90;;;;;;5061593;28;20059;-80
2022/03/05 00:42:50;;;;;;;16.52;5.70;;;6.70;99.90;;;;;;5079373;28;20024;-78
2022/03/05 00:45:16;;;;;;;15.35;5.70;;;6.70;99.90;;;;;;5079400;28;20025;-78
2022/03/05 00:47:42;;;;;;;18.60;6.78;;;6.70;99.90;;;;;;5079224;28;20098;-78
2022/03/05 00:50:09;;;;;;;22.00;7.40;;;6.70;99.90;;;;;;5079240;28;20031;-78
2022/03/05 00:52:36;;;;;;;21.65;6.60;;;6.60;99.90;;;;;;5079431;28;20099;-78
2022/03/05 00:55:03;;;;;;;22.92;8.07;;;6.60;99.90;;;;;;5079078;28;20050;-78
2022/03/05 00:57:29;;;;;;;21.02;7.05;;;6.60;99.90;;;;;;5061235;28;20107;-79
2022/03/05 00:59:55;;;;;;;21.83;6.75;;;6.60;99.90;;;;;;5079058;28;20150;-78
2022/03/05 01:02:21;;;;;;;28.08;8.40;;;6.60;99.90;;;;;;5060974;28;20035;-79
2022/03/05 01:04:47;;;;;;;15.77;6.63;;;6.60;99.90;;;;;;5078079;28;20025;-79
2022/03/05 01:07:13;;;;;;;18.40;5.50;;;6.60;99.90;;;;;;5079040;28;20024;-78
2022/03/05 01:09:40;;;;;;;18.27;6.05;;;6.60;99.90;;;;;;5060982;28;20021;-78
2022/03/05 01:12:06;;;;;;;23.20;6.85;;;6.60;99.90;;;;;;5077989;28;20016;-78
2022/03/05 01:14:32;;;;;;;12.00;5.70;;;6.60;99.90;;;;;;5078763;28;20021;-78
2022/03/05 01:16:58;;;;;;;14.27;7.32;;;6.60;99.90;;;;;;5060880;28;20017;-78
2022/03/05 01:19:24;;;;;;;13.02;5.22;;;6.60;99.90;;;;;;5078422;28;20020;-79
2022/03/05 01:21:50;;;;;;;13.65;6.43;;;6.60;99.90;;;;;;5078797;28;20036;-78
2022/03/05 01:24:17;;;;;;;21.13;5.85;;;6.60;99.90;;;;;;5078576;28;20048;-79
2022/03/05 01:26:43;;;;;;;14.15;6.80;;;6.60;99.90;;;;;;5060686;28;20028;-78
2022/03/05 01:29:09;;;;;;;22.83;7.22;;;6.70;99.90;;;;;;5078676;28;20074;-79
2022/03/05 01:31:36;;;;;;;20.15;6.30;;;6.70;99.90;;;;;;5078688;28;20381;-79
2022/03/05 01:34:02;;;;;;;18.92;6.95;;;6.60;99.90;;;;;;5059751;28;20107;-78
2022/03/05 01:36:28;;;;;;;31.20;10.80;;;6.60;99.90;;;;;;5060808;28;20021;-78
2022/03/05 01:38:54;;;;;;;20.13;6.00;;;6.60;99.90;;;;;;5078265;28;20045;-79
2022/03/05 01:41:20;;;;;;;19.83;7.65;;;6.60;99.90;;;;;;5078608;28;20039;-78
2022/03/05 01:43:52;;;;;;;17.25;7.03;;;6.60;99.90;;;;;;5078068;28;20028;-78
2022/03/05 01:46:34;;;;;;;10.63;5.93;;;6.60;99.90;;;;;;5060308;28;20035;-78
2022/03/05 01:49:01;;;;;;;20.50;7.15;;;6.60;99.90;;;;;;5059896;28;20028;-78
2022/03/05 01:51:27;;;;;;;17.83;7.28;;;6.60;99.90;;;;;;5060508;28;20113;-78
2022/03/05 01:53:53;;;;;;;11.50;5.30;;;6.60;99.90;;;;;;5078196;28;20059;-79
2022/03/05 01:56:20;;;;;;;15.18;6.47;;;6.60;99.90;;;;;;5060097;28;20538;-78
2022/03/05 01:58:46;;;;;;;11.82;5.93;;;6.70;99.90;;;;;;5060071;28;20026;-80
2022/03/05 02:01:12;;;;;;;11.93;5.95;;;6.60;99.90;;;;;;5060073;28;20036;-79
2022/03/05 02:03:38;;;;;;;26.98;7.45;;;6.60;99.90;;;;;;5059994;28;20477;-79
2022/03/05 02:06:04;;;;;;;15.45;6.53;;;6.60;99.90;;;;;;5077867;28;20035;-79
2022/03/05 02:08:30;;;;;;;11.02;5.60;;;6.60;99.90;;;;;;5078280;28;20021;-79
2022/03/05 02:10:56;;;;;;;8.45;5.28;;;6.60;99.90;;;;;;5059797;28;20028;-79
2022/03/05 02:13:21;;;;;;;17.90;6.22;;;6.60;99.90;;;;;;5077927;28;20017;-79
2022/03/05 02:15:54;;;;;;;19.40;7.88;;;6.60;99.90;;;;;;5077648;28;20020;-79
2022/03/05 02:18:19;;;;;;;17.25;7.57;;;6.60;99.90;;;;;;5059592;28;20017;-79
2022/03/05 02:20:45;;;;;;;20.35;7.00;;;6.60;99.90;;;;;;5077612;28;20440;-80
2022/03/05 02:23:11;;;;;;;15.50;8.02;;;6.60;99.90;;;;;;5059399;28;20035;-80
2022/03/05 02:25:37;;;;;;;13.02;7.15;;;6.60;99.90;;;;;;5059410;28;20024;-79
2022/03/05 02:28:04;;;;;;;21.08;6.93;;;6.60;99.90;;;;;;5077498;28;20074;-80
2022/03/05 02:30:30;;;;;;;11.00;5.30;;;6.60;99.90;;;;;;5059624;28;20033;-81
2022/03/05 02:32:56;;;;;;;12.90;6.40;;;6.60;99.90;;;;;;5058962;28;20023;-79
2022/03/05 02:35:22;;;;;;;18.42;6.22;;;6.60;99.90;;;;;;5077411;28;20042;-79
2022/03/05 02:37:47;;;;;;;15.43;6.28;;;6.70;99.90;;;;;;5077300;28;20020;-80
2022/03/05 02:40:13;;;;;;;17.30;7.25;;;6.70;99.90;;;;;;5059275;28;20096;-80
2022/03/05 02:42:39;;;;;;;20.08;7.80;;;6.70;99.90;;;;;;5077138;28;20024;-79
2022/03/05 02:45:05;;;;;;;22.17;6.00;;;6.60;99.90;;;;;;5059252;28;20028;-79
2022/03/05 02:47:31;;;;;;;22.98;8.90;;;6.70;99.90;;;;;;5077126;28;20028;-79
2022/03/05 02:49:57;;;;;;;18.05;6.75;;;6.60;99.90;;;;;;5059076;28;20042;-78
2022/03/05 02:52:23;;;;;;;17.35;6.75;;;6.60;99.90;;;;;;5059476;28;20492;-78
2022/03/05 02:54:49;;;;;;;13.63;7.88;;;6.70;99.90;;;;;;5077068;28;20044;-79
2022/03/05 02:57:14;;;;;;;17.70;6.88;;;6.60;99.90;;;;;;5059085;28;20401;-79
2022/03/05 02:59:40;;;;;;;16.15;7.50;;;6.70;99.90;;;;;;5077255;28;20036;-79
2022/03/05 03:02:06;;;;;;;12.95;7.47;;;6.70;99.90;;;;;;5077179;28;20051;-79
2022/03/05 03:04:32;;;;;;;20.30;7.40;;;6.70;99.90;;;;;;5077140;28;20060;-80
2022/03/05 03:06:58;;;;;;;16.88;7.10;;;6.70;99.90;;;;;;5076977;28;20056;-79
2022/03/05 03:09:23;;;;;;;21.70;8.18;;;6.70;99.90;;;;;;5077062;28;20036;-78
2022/03/05 03:11:49;;;;;;;20.27;7.85;;;6.60;99.90;;;;;;5058881;28;20024;-79
2022/03/05 03:14:15;;;;;;;15.98;7.50;;;6.60;99.90;;;;;;5076976;28;20497;-80
2022/03/05 03:16:41;;;;;;;25.08;8.10;;;6.60;99.90;;;;;;5077066;28;20067;-79
2022/03/05 03:19:07;;;;;;;14.70;8.43;;;6.60;99.90;;;;;;5076616;28;20404;-79
2022/03/05 03:21:33;;;;;;;14.85;6.90;;;6.60;99.90;;;;;;5058829;28;20104;-80
2022/03/05 03:23:58;;;;;;;19.15;7.43;;;6.70;99.90;;;;;;5058965;28;20119;-78
2022/03/05 03:26:24;;;;;;;14.88;6.80;;;6.70;99.90;;;;;;5076889;28;20055;-78
2022/03/05 03:28:50;;;;;;;18.05;7.75;;;6.70;99.90;;;;;;5058577;28;20031;-77
2022/03/05 03:31:16;;;;;;;21.52;9.23;;;6.70;99.90;;;;;;5076872;28;20021;-78
2022/03/05 03:33:42;;;;;;;15.32;6.70;;;6.70;99.90;;;;;;5076516;28;20032;-79
2022/03/05 03:36:07;;;;;;;20.65;6.65;;;6.70;99.90;;;;;;5079336;28;20020;-78
2022/03/05 03:38:33;;;;;;;19.10;7.18;;;6.70;99.90;;;;;;5059214;28;20501;-79
2022/03/05 03:40:59;;;;;;;19.77;7.30;;;6.70;99.90;;;;;;5060635;28;20016;-79
2022/03/05 03:43:25;;;;;;;21.33;6.07;;;6.60;99.90;;;;;;5060557;28;20374;-79
2022/03/05 03:45:51;;;;;;;23.20;7.25;;;6.60;99.90;;;;;;5059585;28;20521;-79
2022/03/05 03:48:17;;;;;;;21.63;8.48;;;6.60;99.90;;;;;;5060211;28;20025;-82
2022/03/05 03:50:42;;;;;;;25.27;6.70;;;6.60;99.90;;;;;;5060523;28;20108;-81
2022/03/05 03:53:08;;;;;;;26.48;7.40;;;6.60;99.90;;;;;;5059390;28;20025;-81
2022/03/05 03:55:35;;;;;;;19.98;6.32;;;6.60;99.90;;;;;;5059248;28;20025;-82
2022/03/05 03:58:01;;;;;;;19.15;7.25;;;6.60;99.90;;;;;;5060283;28;20041;-81
2022/03/05 04:00:26;;;;;;;22.33;6.72;;;6.60;99.90;;;;;;5060599;28;20071;-81
2022/03/05 04:02:52;;;;;;;17.67;7.13;;;6.60;99.90;;;;;;5060166;28;20059;-81
2022/03/05 04:05:18;;;;;;;21.60;6.63;;;6.60;99.90;;;;;;5060415;28;20074;-81
2022/03/05 04:10:29;;;;;;;21.40;6.30;;;6.60;99.90;;;;;;5060116;28;20031;-82
2022/03/05 04:12:55;;;;;;;34.40;7.50;;;6.60;99.90;;;;;;5059987;28;20036;-82
2022/03/05 04:15:21;;;;;;;25.35;9.75;;;6.60;99.90;;;;;;5060203;28;20021;-82
2022/03/05 04:17:47;;;;;;;27.42;7.47;;;6.60;99.90;;;;;;5059946;28;20027;-80
2022/03/05 04:20:13;;;;;;;21.92;6.60;;;6.60;99.90;;;;;;5060020;28;20028;-80
2022/03/05 04:22:39;;;;;;;25.00;7.68;;;6.60;99.90;;;;;;5060038;28;20036;-79
2022/03/05 04:25:06;;;;;;;27.33;6.30;;;6.60;99.90;;;;;;5059968;28;20082;-81
2022/03/05 04:27:32;;;;;;;25.52;7.50;;;6.60;99.90;;;;;;5059740;28;20033;-81
2022/03/05 04:29:58;;;;;;;25.02;7.40;;;6.60;99.90;;;;;;5059717;28;20028;-82
2022/03/05 04:32:24;;;;;;;33.78;7.03;;;6.60;99.90;;;;;;5059431;28;20123;-81
2022/03/05 04:34:50;;;;;;;23.08;7.88;;;6.60;99.90;;;;;;5054267;28;20021;-82
2022/03/05 04:37:16;;;;;;;32.30;6.55;;;6.60;99.90;;;;;;5058588;28;20493;-80
2022/03/05 04:39:41;;;;;;;24.85;7.68;;;6.60;99.90;;;;;;5058026;28;20049;-80
2022/03/05 04:42:07;;;;;;;21.10;6.72;;;6.60;99.90;;;;;;5059391;28;20075;-82
2022/03/05 04:44:33;;;;;;;25.73;9.63;;;6.60;99.90;;;;;;5059568;28;20394;-82
2022/03/05 04:46:59;;;;;;;26.48;7.05;;;6.60;99.90;;;;;;5058205;28;20029;-83
2022/03/05 04:49:25;;;;;;;17.02;7.22;;;6.60;99.90;;;;;;5059438;28;20522;-82
2022/03/05 04:51:51;;;;;;;26.30;8.38;;;6.70;99.90;;;;;;5059683;28;20025;-82
2022/03/05 04:54:17;;;;;;;23.02;6.72;;;6.70;99.90;;;;;;5058287;28;20028;-83
2022/03/05 04:56:43;;;;;;;26.38;7.20;;;6.70;99.90;;;;;;5059445;28;20103;-83
2022/03/05 04:59:09;;;;;;;27.40;8.30;;;6.70;99.90;;;;;;5057824;28;20039;-82
2022/03/05 05:01:35;;;;;;;23.08;8.50;;;6.70;99.90;;;;;;5059404;28;20024;-82
2022/03/05 05:04:01;;;;;;;20.00;7.65;;;6.70;99.90;;;;;;5056936;28;20112;-82
2022/03/05 05:06:27;;;;;;;24.70;8.60;;;6.70;99.90;;;;;;5059262;28;20029;-82
2022/03/05 05:08:53;;;;;;;23.60;7.40;;;6.70;99.90;;;;;;5057550;28;20444;-82
2022/03/05 05:11:19;;;;;;;22.58;7.35;;;6.70;99.90;;;;;;5057819;28;20036;-83
2022/03/05 05:13:45;;;;;;;24.55;8.40;;;6.70;99.90;;;;;;5059215;28;20025;-83
2022/03/05 05:16:11;;;;;;;24.40;8.18;;;6.70;99.90;;;;;;5057700;28;20071;-83
2022/03/05 05:18:37;;;;;;;24.20;7.57;;;6.70;99.90;;;;;;5057504;28;20452;-83
2022/03/05 05:21:03;;;;;;;20.38;7.50;;;6.70;99.90;;;;;;5058780;28;20393;-80
2022/03/05 05:23:28;;;;;;;27.75;8.07;;;6.70;99.90;;;;;;5058878;28;20044;-80
2022/03/05 05:25:54;;;;;;;20.70;7.47;;;6.70;99.90;;;;;;5058878;28;20027;-83
2022/03/05 05:28:20;;;;;;;23.77;7.18;;;6.70;99.90;;;;;;5058835;28;20067;-83
2022/03/05 05:30:46;;;;;;;19.77;7.82;;;6.70;99.90;;;;;;5057140;28;20039;-83
2022/03/05 05:33:12;;;;;;;25.77;8.85;;;6.70;99.90;;;;;;5057247;28;20028;-83
2022/03/05 05:35:38;;;;;;;28.45;8.05;;;6.70;99.90;;;;;;5056343;28;20496;-83
2022/03/05 05:38:04;;;;;;;21.60;6.15;;;6.70;99.90;;;;;;5057326;28;20525;-84
2022/03/05 05:40:30;;;;;;;15.88;6.65;;;6.70;99.90;;;;;;5058571;28;20489;-83
2022/03/05 05:42:56;;;;;;;25.52;8.20;;;6.70;99.90;;;;;;5058211;28;20547;-82
2022/03/05 05:45:22;;;;;;;36.90;8.98;;;6.80;99.90;;;;;;5057268;28;20443;-83
2022/03/05 05:47:48;;;;;;;16.23;8.27;;;6.80;99.90;;;;;;5058200;28;20024;-82
2022/03/05 05:50:14;;;;;;;19.33;6.78;;;6.70;99.90;;;;;;5058388;28;20477;-83
2022/03/05 05:52:40;;;;;;;14.40;7.22;;;6.70;99.90;;;;;;5058736;28;20017;-82
2022/03/05 05:55:06;;;;;;;15.30;6.28;;;6.80;99.90;;;;;;5058233;28;20025;-82
2022/03/05 05:57:32;;;;;;;20.98;7.10;;;6.80;99.90;;;;;;5056860;28;20037;-82
2022/03/05 05:59:58;;;;;;;15.80;6.97;;;6.70;99.90;;;;;;5058151;28;20021;-84
2022/03/05 06:02:24;;;;;;;20.15;6.68;;;6.70;99.90;;;;;;5056533;28;20035;-82
2022/03/05 06:04:50;;;;;;;18.35;7.75;;;6.70;99.90;;;;;;5058029;28;20048;-80
2022/03/05 06:07:15;;;;;;;23.52;8.18;;;6.70;99.90;;;;;;5040080;28;20093;-82
2022/03/05 06:09:41;;;;;;;21.02;7.75;;;6.70;99.90;;;;;;5057963;28;20505;-82
2022/03/05 06:12:07;;;;;;;21.55;6.82;;;6.70;99.90;;;;;;5056492;28;20127;-81
2022/03/05 06:14:34;;;;;;;14.10;6.68;;;6.70;99.90;;;;;;5057908;28;20021;-81
2022/03/05 06:16:59;;;;;;;31.58;8.25;;;6.70;99.90;;;;;;5056278;28;20029;-81
2022/03/05 06:19:25;;;;;;;23.48;8.50;;;6.70;99.90;;;;;;5056705;28;20048;-81
2022/03/05 06:21:51;;;;;;;21.00;6.22;;;6.70;99.90;;;;;;5056289;28;20477;-81
2022/03/05 06:24:17;;;;;;;25.98;7.57;;;6.70;99.90;;;;;;5057633;28;20021;-81
2022/03/05 06:26:43;;;;;;;25.55;8.27;;;6.70;99.90;;;;;;5057493;28;20029;-80
2022/03/05 06:29:09;;;;;;;27.73;8.57;;;6.70;99.90;;;;;;5057311;28;20059;-80
2022/03/05 06:31:34;;;;;;;26.77;12.45;;;6.70;99.90;;;;;;5056426;28;20032;-82
2022/03/05 06:34:00;;;;;;;22.05;8.00;;;6.70;99.90;;;;;;5057078;28;20021;-82
2022/03/05 06:36:26;;;;;;;29.17;7.57;;;6.70;99.90;;;;;;5056083;28;20025;-80
2022/03/05 06:38:52;;;;;;;27.88;7.97;;;6.70;99.90;;;;;;5067158;28;20200;-80
2022/03/05 06:41:18;;;;;;;26.40;7.47;;;6.70;99.90;;;;;;5077532;28;20032;-80
2022/03/05 06:43:44;;;;;;;30.25;8.07;;;6.70;99.90;;;;;;5077074;28;20099;-81
2022/03/05 06:46:10;;;;;;;28.13;11.45;;;6.70;99.90;;;;;;5077374;28;20032;-82
2022/03/05 06:48:35;;;;;;;35.53;8.60;;;6.70;99.90;;;;;;5077405;28;20042;-81
2022/03/05 06:51:01;;;;;;;27.77;8.77;;;6.70;99.90;;;;;;5077738;28;20024;-80
2022/03/05 06:53:27;;;;;;;16.92;7.45;;;6.70;99.90;;;;;;5077541;28;20469;-81
2022/03/05 06:55:53;;;;;;;25.33;7.90;;;6.70;99.90;;;;;;5077875;28;20025;-80
2022/03/05 06:58:19;;;;;;;26.35;7.50;;;6.70;99.90;;;;;;5059241;28;20032;-81
2022/03/05 07:00:45;;;;;;;21.27;8.32;;;6.70;99.90;;;;;;5077557;28;20032;-81
2022/03/05 07:03:10;;;;;;;29.45;8.68;;;6.70;99.90;;;;;;5059121;28;20024;-81
2022/03/05 07:05:36;;;;;;;30.67;8.80;;;6.70;99.90;;;;;;5077648;28;20024;-81
2022/03/05 07:08:03;;;;;;;28.77;7.88;;;6.80;99.90;;;;;;5059528;28;20039;-80
2022/03/05 07:10:29;;;;;;;20.58;8.25;;;6.80;99.90;;;;;;5076908;28;20446;-81
2022/03/05 07:12:55;;;;;;;22.88;7.03;;;6.80;99.90;;;;;;5060811;28;20025;-80
2022/03/05 07:15:20;;;;;;;29.25;7.40;;;6.80;99.90;;;;;;5079462;28;20479;-80
2022/03/05 07:17:51;;;;;;;24.35;8.32;;;6.80;99.90;;;;;;5061173;28;20024;-80
2022/03/05 07:20:17;;;;;;;20.95;7.25;;;6.90;99.90;;;;;;5060617;28;20072;-80
2022/03/05 07:22:43;;;;;;;31.92;8.90;;;6.90;99.90;;;;;;5060406;28;20025;-80
2022/03/05 07:25:10;;;;;;;19.35;7.97;;;6.90;99.90;;;;;;5078674;28;20032;-80
2022/03/05 07:27:35;;;;;;;22.45;7.20;;;6.90;99.90;;;;;;5079103;28;20031;-82
2022/03/05 07:30:01;;;;;;;19.27;7.63;;;6.90;99.90;;;;;;5077048;28;20084;-79
2022/03/05 07:32:27;;;;;;;26.48;8.30;;;6.90;99.90;;;;;;5076504;28;20536;-80
2022/03/05 07:34:53;;;;;;;30.58;8.15;;;6.90;99.90;;;;;;5076724;28;20509;-80
2022/03/05 07:37:19;;;;;;;25.95;7.95;;;6.90;99.90;;;;;;5075716;28;20481;-79
2022/03/05 07:39:45;;;;;;;29.88;8.07;;;7.00;99.90;;;;;;5076676;28;20098;-80
2022/03/05 07:42:11;;;;;;;25.08;7.30;;;7.00;99.90;;;;;;5058321;28;20027;-80
2022/03/05 07:44:36;;;;;;;29.25;8.88;;;7.00;99.90;;;;;;5076572;28;20390;-79
2022/03/05 07:47:03;;;;;;;25.38;7.47;;;7.10;99.90;;;;;;5076582;28;20032;-80
2022/03/05 07:49:29;;;;;;;30.85;9.20;;;7.10;99.90;;;;;;5076682;28;20050;-80
2022/03/05 07:51:56;;;;;;;34.15;9.40;;;7.10;99.90;;;;;;5076312;28;20120;-80
2022/03/05 07:54:23;;;;;;;34.53;8.98;;;7.10;99.90;;;;;;5075932;28;20104;-79
2022/03/05 07:56:49;;;;;;;28.75;7.88;;;7.10;99.90;;;;;;5058215;28;20111;-79
2022/03/05 07:59:15;;;;;;;22.58;8.88;;;7.10;99.90;;;;;;5076348;28;20025;-80
2022/03/05 08:01:41;;;;;;;27.10;8.20;;;7.20;99.90;;;;;;5076223;28;20452;-79
2022/03/05 08:04:07;;;;;;;36.10;9.25;;;7.20;99.90;;;;;;5075707;28;20485;-80
2022/03/05 08:06:33;;;;;;;32.00;8.82;;;7.30;99.90;;;;;;5057924;28;20020;-80
2022/03/05 08:08:59;;;;;;;32.83;8.27;;;7.30;99.90;;;;;;5074828;28;20103;-80
2022/03/05 08:11:25;;;;;;;26.52;7.50;;;7.30;99.90;;;;;;5058077;28;20484;-80
2022/03/05 08:13:52;;;;;;;26.27;8.63;;;7.40;99.90;;;;;;5075803;28;20020;-80
2022/03/05 08:16:17;;;;;;;24.65;9.13;;;7.40;99.90;;;;;;5076156;28;20489;-80
2022/03/05 08:18:43;;;;;;;35.70;7.32;;;7.50;99.90;;;;;;5075807;28;20024;-80
2022/03/05 08:21:09;;;;;;;27.65;8.23;;;7.50;99.90;;;;;;5058492;28;20024;-80
2022/03/05 08:23:35;;;;;;;27.85;7.65;;;7.60;99.90;;;;;;5078048;28;20082;-80
2022/03/05 08:26:02;;;;;;;29.10;8.25;;;7.60;99.90;;;;;;5079292;28;20024;-81
2022/03/05 08:28:28;;;;;;;33.17;7.88;;;7.60;99.90;;;;;;5061534;28;20023;-80
2022/03/05 08:30:54;;;;;;;25.42;8.68;;;7.70;99.90;;;;;;5053313;28;20025;-75
2022/03/05 08:33:21;;;;;;;27.92;8.50;;;7.70;99.90;;;;;;5064995;28;20108;-82
2022/03/05 08:35:48;;;;;;;30.15;9.95;;;7.70;99.90;;;;;;5061612;28;20427;-81
2022/03/05 08:38:14;;;;;;;26.65;9.00;;;7.80;99.90;;;;;;5078629;28;20115;-82
2022/03/05 08:40:40;;;;;;;27.88;8.27;;;7.80;99.90;;;;;;5079242;28;20115;-81
2022/03/05 08:43:06;;;;;;;26.63;7.22;;;7.80;99.90;;;;;;5078386;28;20922;-80
2022/03/05 08:45:33;;;;;;;35.40;7.13;;;7.80;99.90;;;;;;5061560;28;20166;-82
2022/03/05 08:47:58;;;;;;;24.10;7.93;;;7.80;99.90;;;;;;5061063;28;20603;-82
2022/03/05 08:50:24;;;;;;;28.33;7.40;;;7.80;99.90;;;;;;5079587;28;20048;-81
2022/03/05 08:52:51;;;;;;;22.02;8.52;;;7.80;99.90;;;;;;5080063;28;20370;-81
2022/03/05 08:55:17;;;;;;;25.70;7.25;;;7.80;99.90;;;;;;5061847;28;20033;-81
2022/03/05 08:57:43;;;;;;;21.02;9.10;;;7.80;99.90;;;;;;5079471;28;20021;-82
2022/03/05 09:00:12;;;;;;;39.95;10.10;;;7.90;99.90;;;;;;5060673;28;20028;-82
2022/03/05 09:02:38;;;;;;;31.08;9.30;;;7.90;99.90;;;;;;5078214;28;20052;-82
2022/03/05 09:05:05;;;;;;;32.30;8.40;;;8.00;99.90;;;;;;5066861;28;20032;-82
2022/03/05 09:07:31;;;;;;;24.13;8.45;;;8.00;99.90;;;;;;5061160;28;20074;-82
2022/03/05 09:09:57;;;;;;;22.08;7.47;;;8.10;99.90;;;;;;5060809;28;20021;-82
2022/03/05 09:12:23;;;;;;;21.65;7.82;;;8.10;99.90;;;;;;5079031;28;20384;-82
2022/03/05 09:14:49;;;;;;;29.23;8.77;;;8.20;99.90;;;;;;5060985;28;20031;-81
2022/03/05 09:17:16;;;;;;;42.28;12.93;;;8.20;99.90;;;;;;5078557;28;20025;-81
2022/03/05 09:19:42;;;;;;;29.20;10.43;;;8.20;99.90;;;;;;5078894;28;20032;-80
2022/03/05 09:22:09;;;;;;;26.75;9.05;;;8.20;99.90;;;;;;5078497;28;20035;-81
2022/03/05 09:24:36;;;;;;;20.65;8.00;;;8.10;99.90;;;;;;5060631;28;20024;-82
2022/03/05 09:27:03;;;;;;;21.75;8.25;;;8.20;99.90;;;;;;5060768;28;20028;-81
2022/03/05 09:29:29;;;;;;;25.00;8.90;;;8.20;99.90;;;;;;5078809;28;20450;-82
2022/03/05 09:31:55;;;;;;;25.10;8.65;;;8.20;99.90;;;;;;5078311;28;20161;-81
2022/03/05 09:34:21;;;;;;;27.52;8.68;;;8.30;99.90;;;;;;5076859;28;20032;-80
2022/03/05 09:36:47;;;;;;;31.75;8.20;;;8.40;99.90;;;;;;5078423;28;20016;-82
2022/03/05 09:39:13;;;;;;;28.45;8.85;;;8.50;99.90;;;;;;5077956;28;20542;-82
2022/03/05 09:41:40;;;;;;;19.48;7.47;;;8.50;99.90;;;;;;5075950;28;20060;-81
2022/03/05 09:44:06;;;;;;;31.02;9.88;;;8.50;99.90;;;;;;5078285;28;20074;-82
2022/03/05 09:46:33;;;;;;;18.75;7.85;;;8.60;99.90;;;;;;5078903;28;20024;-82
2022/03/05 09:48:59;;;;;;;30.40;8.75;;;8.60;99.90;;;;;;5059583;28;20031;-82
2022/03/05 09:51:25;;;;;;;32.63;8.30;;;8.60;99.90;;;;;;5078001;28;20091;-82
2022/03/05 09:53:55;;;;;;;17.00;8.60;;;8.60;99.90;;;;;;5078261;28;20056;-83
2022/03/05 09:56:22;;;;;;;20.80;8.03;;;8.70;99.90;;;;;;5059990;28;20042;-82
2022/03/05 09:58:49;;;;;;;22.17;8.63;;;8.90;99.90;;;;;;5062077;28;20103;-82
2022/03/05 10:01:16;;;;;;;25.23;8.45;;;8.90;99.90;;;;;;5061033;28;20028;-82
2022/03/05 10:03:44;;;;;;;18.05;7.28;;;9.10;99.90;;;;;;5077622;28;20112;-82
2022/03/05 10:06:21;;;;;;;22.63;7.30;;;9.10;99.90;;;;;;5077792;28;20024;-82
2022/03/05 10:08:51;;;;;;;28.63;8.68;;;9.20;99.90;;;;;;5077168;28;20023;-82
2022/03/05 10:11:18;;;;;;;20.77;8.38;;;9.20;99.90;;;;;;5059894;28;20101;-84
2022/03/05 10:13:44;;;;;;;15.25;7.72;;;9.30;99.90;;;;;;5059238;28;20396;-81
2022/03/05 10:16:32;;;;;;;19.85;8.60;;;9.20;99.90;;;;;;5077792;28;20016;-82
2022/03/05 10:19:18;;;;;;;23.08;9.45;;;9.20;99.90;;;;;;5059444;28;20029;-80
2022/03/05 10:22:03;;;;;;;19.02;9.13;;;9.30;99.90;;;;;;5059633;28;20023;-80
2022/03/05 10:24:37;;;;;;;25.00;9.93;;;9.20;99.90;;;;;;5077689;28;20024;-83
2022/03/05 10:27:06;;;;;;;21.02;9.40;;;9.10;99.90;;;;;;5077454;28;20071;-82
2022/03/05 10:29:35;;;;;;;23.17;8.65;;;9.10;99.90;;;;;;5077626;28;20409;-85
2022/03/05 10:32:06;;;;;;;20.80;9.05;;;9.10;99.90;;;;;;5059414;28;20025;-84
2022/03/05 10:34:41;;;;;;;20.58;8.32;;;9.20;99.90;;;;;;5059575;28;20512;-83
2022/03/05 10:37:08;;;;;;;20.58;8.75;;;9.30;99.90;;;;;;5059978;28;20046;-88
2022/03/05 10:39:34;;;;;;;17.33;7.78;;;9.60;99.90;;;;;;5078988;28;20056;-86
2022/03/05 10:42:00;;;;;;;16.92;8.70;;;9.70;99.90;;;;;;5059849;28;20024;-84
2022/03/05 10:44:27;;;;;;;11.50;7.75;;;9.60;99.90;;;;;;5078991;28;20028;-90
2022/03/05 10:47:00;;;;;;;14.55;8.05;;;9.60;99.90;;;;;;5062946;28;20143;-86
2022/03/05 10:49:39;;;;;;;13.63;6.78;;;9.50;99.90;;;;;;5078164;28;20024;-86
2022/03/05 10:52:09;;;;;;;17.35;7.60;;;9.40;99.90;;;;;;5075520;28;20033;-88
2022/03/05 10:54:40;;;;;;;10.60;7.10;;;9.40;99.90;;;;;;5058366;28;20082;-87
2022/03/05 10:57:16;;;;;;;12.32;6.70;;;9.50;99.90;;;;;;5060336;28;20037;-87
2022/03/05 10:59:53;;;;;;;16.05;7.90;;;9.50;99.90;;;;;;5078015;28;20449;-85
2022/03/05 11:02:21;;;;;;;17.17;7.50;;;9.70;99.90;;;;;;5077940;28;20111;-85
2022/03/05 11:04:48;;;;;;;12.82;5.72;;;9.80;99.90;;;;;;5076706;28;20028;-84
2022/03/05 11:07:16;;;;;;;12.30;6.65;;;9.90;99.90;;;;;;5078003;28;20048;-85
2022/03/05 11:09:43;;;;;;;12.00;6.05;;;10.00;99.90;;;;;;5076644;28;20024;-84
2022/03/05 11:12:16;;;;;;;13.15;5.88;;;10.10;99.90;;;;;;5076789;28;20028;-81
2022/03/05 11:14:48;;;;;;;15.48;6.88;;;10.10;99.90;;;;;;5075699;28;20099;-83
2022/03/05 11:17:14;;;;;;;17.85;6.57;;;10.20;99.90;;;;;;5076981;28;20024;-80
2022/03/05 11:19:40;;;;;;;27.90;8.40;;;10.20;99.90;;;;;;5059222;28;20033;-80
2022/03/05 11:22:08;;;;;;;12.57;6.40;;;10.20;99.90;;;;;;5077304;28;20405;-82
2022/03/05 11:24:38;;;;;;;20.58;7.82;;;10.10;99.90;;;;;;5061206;28;20040;-80
2022/03/05 11:27:04;;;;;;;14.07;7.60;;;9.80;99.90;;;;;;5077586;28;20060;-80
2022/03/05 11:29:54;;;;;;;11.82;6.45;;;9.40;99.90;;;;;;5077066;28;20484;-81
2022/03/05 11:32:21;;;;;;;14.95;7.05;;;9.10;99.90;;;;;;5058337;28;20025;-81
2022/03/05 11:34:48;;;;;;;14.65;7.82;;;8.90;99.90;;;;;;5075519;28;20031;-81
2022/03/05 11:37:30;;;;;;;18.10;9.05;;;8.90;99.90;;;;;;5058819;28;20028;-80
2022/03/05 11:39:56;;;;;;;17.55;6.20;;;9.00;99.90;;;;;;5077038;28;20123;-80
2022/03/05 11:42:36;;;;;;;13.95;7.70;;;9.10;99.90;;;;;;5076747;28;20040;-81
2022/03/05 11:45:24;;;;;;;13.20;6.75;;;9.30;99.90;;;;;;5058711;28;20047;-82
2022/03/05 11:47:50;;;;;;;9.20;4.50;;;9.50;99.90;;;;;;5046245;28;20032;-80
2022/03/05 11:50:17;;;;;;;9.65;5.63;;;9.60;99.90;;;;;;5058600;28;20024;-80
2022/03/05 11:52:43;;;;;;;35.90;9.80;;;9.70;99.90;;;;;;5058799;28;20025;-80
2022/03/05 11:55:11;;;;;;;12.27;6.35;;;9.90;99.90;;;;;;5076075;28;20025;-80
2022/03/05 11:57:41;;;;;;;9.20;5.93;;;9.90;99.90;;;;;;5062100;28;20028;-79
2022/03/05 12:00:29;;;;;;;14.05;7.13;;;10.00;99.90;;;;;;5080574;28;20029;-80
2022/03/05 12:02:58;;;;;;;14.40;5.80;;;10.10;99.90;;;;;;5045454;28;20448;-80
2022/03/05 12:05:33;;;;;;;7.82;4.80;;;10.30;99.90;;;;;;5078965;28;20028;-80
2022/03/05 12:07:59;;;;;;;7.40;4.50;;;10.30;99.90;;;;;;5079627;28;20040;-82
2022/03/05 12:10:25;;;;;;;11.48;4.70;;;10.40;99.90;;;;;;5079722;28;20095;-81
2022/03/05 12:12:52;;;;;;;11.35;4.78;;;10.40;99.90;;;;;;5079648;28;20500;-82
2022/03/05 12:15:25;;;;;;;10.48;4.35;;;10.50;99.90;;;;;;5080197;28;20570;-82
2022/03/05 12:17:51;;;;;;;10.30;4.32;;;10.60;99.90;;;;;;5069492;28;20028;-81
2022/03/05 12:20:34;;;;;;;10.60;3.90;;;10.70;99.90;;;;;;5078605;28;20035;-81
2022/03/05 12:23:08;;;;;;;10.93;4.85;;;10.80;99.90;;;;;;5068012;28;20054;-82
2022/03/05 12:25:38;;;;;;;11.38;4.82;;;10.80;99.90;;;;;;5061378;28;20025;-83
2022/03/05 12:28:11;;;;;;;7.53;4.32;;;10.70;99.90;;;;;;5079748;28;20025;-82
2022/03/05 12:30:38;;;;;;;16.73;5.47;;;10.70;99.90;;;;;;5079824;28;20036;-82
2022/03/05 12:33:07;;;;;;;15.65;4.40;;;10.80;99.90;;;;;;5061553;28;20481;-83
2022/03/05 12:35:34;;;;;;;10.13;4.53;;;10.80;99.90;;;;;;5079641;28;20031;-82
2022/03/05 12:38:00;;;;;;;10.35;4.88;;;10.90;99.90;;;;;;5078743;28;20473;-81
2022/03/05 12:40:28;;;;;;;14.90;5.82;;;11.10;99.90;;;;;;5061501;28;20409;-83
2022/03/05 12:42:55;;;;;;;9.95;5.20;;;11.10;99.90;;;;;;5061489;28;20043;-83
2022/03/05 12:45:24;;;;;;;13.55;6.57;;;11.20;99.90;;;;;;5062798;28;20064;-82
2022/03/05 12:47:52;;;;;;;10.20;5.68;;;11.10;99.90;;;;;;5061310;28;20040;-81